Time;durP1;ratioP1;P1;durP2;ratioP2;P2;SDS_P1;SDS_P2;PMS_P1;PMS_P2;Temp;Humidity;BMP_temperature;BMP_pressure;BME280_temperature;BME280_humidity;BME280_pressure;Samples;Min_cycle;Max_cycle;Signal;HPM_P1;HPM_P2
2023/06/29 00:00:21;;;;;;;3.35;1.80;;;;;;;18.35;49.76;99774.13;7790929;32;37014;-75
2023/06/29 00:04:37;;;;;;;2.62;1.77;;;;;;;18.37;49.50;99780.13;7790914;32;40052;-75
2023/06/29 00:08:53;;;;;;;8.05;1.73;;;;;;;18.44;49.22;99776.88;7790727;32;39864;-75
2023/06/29 00:13:10;;;;;;;4.30;1.80;;;;;;;18.37;49.56;99766.31;7790511;32;38672;-75
2023/06/29 00:17:26;;;;;;;5.75;2.17;;;;;;;18.18;49.96;99766.63;7790546;32;38212;-75
2023/06/29 00:21:42;;;;;;;3.22;1.62;;;;;;;18.24;49.57;99767.28;7790567;32;38936;-75
2023/06/29 00:26:02;;;;;;;2.17;1.52;;;;;;;18.13;49.39;99754.97;7790312;32;41024;-75
2023/06/29 00:30:19;;;;;;;3.80;1.58;;;;;;;18.20;49.10;99758.84;7790497;32;37905;-75
2023/06/29 00:34:36;;;;;;;4.25;1.75;;;;;;;18.24;48.25;99758.19;7793844;32;37669;-75
2023/06/29 00:38:53;;;;;;;4.00;1.55;;;;;;;18.19;48.56;99764.69;7794003;32;39706;-76
2023/06/29 00:43:10;;;;;;;3.83;1.90;;;;;;;18.36;47.95;99761.94;7793820;32;40104;-75
2023/06/29 00:47:26;;;;;;;4.65;1.70;;;;;;;18.02;47.40;99763.53;7793643;32;37970;-75
2023/06/29 00:51:47;;;;;;;4.18;1.77;;;;;;;18.13;48.11;99766.78;7793673;32;36845;-75
2023/06/29 00:56:04;;;;;;;2.60;1.67;;;;;;;17.96;48.19;99767.59;7792606;32;39219;-74
2023/06/29 01:00:20;;;;;;;2.97;1.75;;;;;;;17.88;49.38;99762.84;7793447;32;39787;-75
2023/06/29 01:04:37;;;;;;;2.30;1.80;;;;;;;17.65;50.67;99751.91;7793529;32;37513;-74
2023/06/29 01:08:55;;;;;;;2.83;1.80;;;;;;;17.51;50.50;99753.19;7792319;32;36890;-74
2023/06/29 01:13:13;;;;;;;5.53;2.10;;;;;;;17.49;50.67;99756.25;7793532;32;38268;-75
2023/06/29 01:17:31;;;;;;;2.75;1.90;;;;;;;17.61;50.33;99753.69;7793367;32;40714;-75
2023/06/29 01:22:02;;;;;;;4.50;1.80;;;;;;;17.13;52.08;99748.97;7792104;32;37902;-77
2023/06/29 01:26:18;;;;;;;5.20;2.42;;;;;;;17.34;51.73;99742.91;7792365;32;36966;-74
2023/06/29 01:30:45;;;;;;;5.07;2.00;;;;;;;17.48;51.76;99751.84;7792129;32;38960;-75
2023/06/29 01:35:02;;;;;;;4.35;2.25;;;;;;;17.51;51.88;99742.97;7793219;32;39976;-75
2023/06/29 01:39:21;;;;;;;2.78;1.95;;;;;;;17.39;51.97;99745.50;7793145;32;37471;-75
2023/06/29 01:43:38;;;;;;;3.28;2.20;;;;;;;17.56;51.50;99745.56;7792817;32;36893;-75
2023/06/29 01:47:55;;;;;;;2.97;1.90;;;;;;;17.53;51.78;99753.66;7791831;32;39790;-75
2023/06/29 01:52:12;;;;;;;5.80;2.00;;;;;;;17.51;51.75;99747.66;7792867;32;39915;-75
2023/06/29 01:56:28;;;;;;;4.45;2.08;;;;;;;17.48;52.05;99754.59;7792834;32;37937;-75
2023/06/29 02:00:44;;;;;;;2.95;1.90;;;;;;;17.48;52.23;99754.59;7792727;32;37448;-75
2023/06/29 02:05:01;;;;;;;2.85;1.85;;;;;;;17.43;52.06;99746.50;7792838;32;39960;-75
2023/06/29 02:09:17;;;;;;;3.75;1.98;;;;;;;17.40;52.61;99752.62;7792735;32;40859;-75
2023/06/29 02:13:33;;;;;;;3.97;2.10;;;;;;;17.52;51.56;99750.06;7792874;32;37918;-75
2023/06/29 02:17:50;;;;;;;8.30;2.90;;;;;;;17.66;51.35;99752.75;7792700;32;37655;-75
2023/06/29 02:22:06;;;;;;;6.03;2.45;;;;;;;17.48;51.69;99754.59;7791578;32;39747;-75
2023/06/29 02:26:26;;;;;;;7.03;2.12;;;;;;;17.56;51.83;99750.28;7792598;32;39596;-75
2023/06/29 02:30:42;;;;;;;5.57;2.55;;;;;;;17.53;52.40;99762.72;7791325;32;37969;-75
2023/06/29 02:34:58;;;;;;;5.65;2.20;;;;;;;17.57;52.56;99758.19;7792520;32;36732;-75
2023/06/29 02:39:14;;;;;;;7.57;2.87;;;;;;;17.54;52.95;99749.75;7792500;32;39728;-76
2023/06/29 02:43:31;;;;;;;4.78;2.92;;;;;;;17.37;53.58;99742.25;7792445;32;40086;-75
2023/06/29 02:47:47;;;;;;;6.40;2.30;;;;;;;17.22;53.99;99744.28;7792260;32;37938;-76
2023/06/29 02:52:04;;;;;;;4.70;2.70;;;;;;;17.40;53.68;99747.13;7792339;32;36946;-75
2023/06/29 02:56:20;;;;;;;5.37;2.55;;;;;;;17.41;53.71;99746.00;7791355;32;40082;-75
2023/06/29 03:00:37;;;;;;;4.45;2.78;;;;;;;17.11;54.82;99755.91;7791891;32;40818;-75
2023/06/29 03:04:53;;;;;;;5.35;2.97;;;;;;;17.00;55.41;99739.66;7792170;32;37943;-75
2023/06/29 03:09:10;;;;;;;2.92;2.20;;;;;;;16.77;55.79;99743.56;7792068;32;36929;-75
2023/06/29 03:13:26;;;;;;;8.70;3.12;;;;;;;16.69;56.06;99745.09;7791902;32;41248;-75
2023/06/29 03:17:42;;;;;;;5.75;2.60;;;;;;;16.70;55.60;99744.78;7791964;32;39803;-75
2023/06/29 03:21:58;;;;;;;4.70;3.00;;;;;;;16.60;55.83;99741.50;7791950;32;37870;-75
2023/06/29 03:26:15;;;;;;;4.75;2.58;;;;;;;16.29;57.05;99753.22;7791812;32;37044;-75
2023/06/29 03:30:31;;;;;;;8.43;3.22;;;;;;;16.42;56.83;99752.38;7791709;32;39953;-75
2023/06/29 03:34:48;;;;;;;4.68;2.92;;;;;;;16.25;57.67;99752.22;7791507;32;41550;-75
2023/06/29 03:39:04;;;;;;;9.30;3.30;;;;;;;16.28;57.79;99755.19;7791467;32;37919;-75
2023/06/29 03:43:21;;;;;;;8.45;3.83;;;;;;;16.22;58.38;99761.09;7791484;32;37210;-75
2023/06/29 03:47:37;;;;;;;6.30;3.78;;;;;;;16.32;58.37;99769.12;7791334;32;39982;-75
2023/06/29 03:51:54;;;;;;;5.60;3.60;;;;;;;16.41;58.36;99761.75;7791106;32;40737;-75
2023/06/29 03:56:10;;;;;;;5.62;3.60;;;;;;;16.54;58.00;99754.56;7790887;32;38003;-75
2023/06/29 04:00:26;;;;;;;9.23;3.87;;;;;;;16.57;58.11;99764.13;7790895;32;37488;-75
2023/06/29 04:04:43;;;;;;;6.72;3.70;;;;;;;16.54;58.24;99776.59;7791366;32;39334;-75
2023/06/29 04:09:00;;;;;;;10.45;3.50;;;;;;;16.38;58.87;99784.38;7794325;32;40733;-74
2023/06/29 04:13:16;;;;;;;6.65;3.58;;;;;;;16.70;57.70;99772.31;7793984;32;38715;-75
2023/06/29 04:17:32;;;;;;;8.10;3.22;;;;;;;16.89;57.00;99772.16;7794164;32;36693;-75
2023/06/29 04:21:48;;;;;;;8.30;3.65;;;;;;;17.01;56.65;99776.28;7794294;32;38946;-75
2023/06/29 04:26:05;;;;;;;6.40;3.15;;;;;;;17.02;56.38;99783.41;7794051;32;40687;-75
2023/06/29 04:30:21;;;;;;;5.60;3.30;;;;;;;17.30;55.78;99783.22;7793935;32;37526;-76
2023/06/29 04:34:37;;;;;;;7.55;3.15;;;;;;;17.29;55.83;99785.16;7793880;32;36890;-75
2023/06/29 04:38:54;;;;;;;6.47;3.12;;;;;;;17.31;56.06;99787.59;7793984;32;40103;-75
2023/06/29 04:43:12;;;;;;;8.07;2.83;;;;;;;17.44;54.94;99786.69;7793868;32;40722;-75
2023/06/29 04:47:32;;;;;;;8.57;3.10;;;;;;;17.42;54.30;99788.97;7793833;32;38022;-75
2023/06/29 04:51:48;;;;;;;5.15;3.03;;;;;;;17.25;55.03;99775.91;7793743;32;37056;-75
2023/06/29 04:56:04;;;;;;;6.15;3.00;;;;;;;17.29;54.21;99781.59;7793684;32;38869;-74
2023/06/29 05:00:21;;;;;;;3.45;2.80;;;;;;;17.34;54.06;99775.97;7793373;32;40769;-75
2023/06/29 05:04:37;;;;;;;6.70;2.65;;;;;;;17.29;53.38;99784.38;7793459;32;38743;-75
2023/06/29 05:08:53;;;;;;;8.00;3.28;;;;;;;17.53;52.62;99784.78;7793574;32;36937;-75
2023/06/29 05:13:10;;;;;;;11.43;3.47;;;;;;;17.16;53.81;99786.91;7793218;32;39193;-75
2023/06/29 05:17:26;;;;;;;7.45;3.37;;;;;;;17.00;54.04;99793.91;7792714;32;39797;-75
2023/06/29 05:21:42;;;;;;;6.00;3.08;;;;;;;17.22;52.69;99795.84;7793212;32;38403;-74
2023/06/29 05:25:59;;;;;;;7.22;3.85;;;;;;;17.57;52.90;99785.75;7793163;32;37765;-75
2023/06/29 05:30:16;;;;;;;7.90;3.30;;;;;;;17.57;54.49;99791.28;7793132;32;40000;-75
2023/06/29 05:34:33;;;;;;;8.18;3.58;;;;;;;17.62;53.59;99777.34;7792968;32;39586;-75
2023/06/29 05:38:49;;;;;;;10.38;3.30;;;;;;;17.83;53.18;99798.81;7791897;32;37925;-75
2023/06/29 05:43:05;;;;;;;6.32;3.20;;;;;;;17.42;54.21;99798.03;7792914;32;37754;-75
2023/06/29 05:47:22;;;;;;;7.47;3.37;;;;;;;17.82;54.59;99786.19;7792805;32;40753;-75
2023/06/29 05:51:38;;;;;;;5.00;2.85;;;;;;;17.99;53.45;99791.75;7792831;32;39968;-75
2023/06/29 05:55:54;;;;;;;6.12;2.97;;;;;;;17.91;53.05;99767.72;7792669;32;37568;-76
2023/06/29 06:00:12;;;;;;;4.10;2.60;;;;;;;17.71;52.24;99787.59;7792562;32;36862;-76
2023/06/29 06:04:29;;;;;;;4.50;2.50;;;;;;;17.76;52.80;99781.94;7792836;32;39003;-76
2023/06/29 06:08:45;;;;;;;6.65;2.62;;;;;;;17.98;51.99;99773.56;7792684;32;40040;-75
2023/06/29 06:13:02;;;;;;;7.10;2.55;;;;;;;17.95;52.88;99762.38;7792524;32;38652;-76
2023/06/29 06:17:19;;;;;;;4.90;2.37;;;;;;;18.25;51.90;99774.44;7792689;32;37022;-75
2023/06/29 06:21:35;;;;;;;6.57;2.40;;;;;;;18.18;52.68;99774.91;7802642;32;39299;-69
2023/06/29 06:25:51;;;;;;;6.50;2.25;;;;;;;18.87;51.25;99770.53;7819926;32;41146;-68
2023/06/29 06:30:08;;;;;;;7.95;2.47;;;;;;;19.06;49.64;99767.41;7818665;32;37949;-66
2023/06/29 06:34:24;;;;;;;7.07;2.67;;;;;;;19.14;49.76;99769.34;7793220;32;37533;-68
2023/06/29 06:38:41;;;;;;;5.35;2.65;;;;;;;19.40;48.96;99773.13;7792576;32;39964;-75
2023/06/29 06:43:05;;;;;;;9.10;2.70;;;;;;;19.18;48.91;99760.34;7819003;32;39956;-75
2023/06/29 06:47:21;;;;;;;7.95;2.35;;;;;;;19.84;49.08;99763.50;7817076;31;37867;-74
2023/06/29 06:51:38;;;;;;;8.52;2.40;;;;;;;19.98;48.80;99757.72;7819479;32;36881;-75
2023/06/29 06:55:54;;;;;;;5.78;2.95;;;;;;;20.05;48.42;99757.19;7819576;32;40026;-74
2023/06/29 07:00:12;;;;;;;6.28;2.40;;;;;;;20.62;47.22;99762.13;7819084;32;39651;-75
2023/06/29 07:04:29;;;;;;;4.43;2.30;;;;;;;21.12;47.12;99765.03;7819315;32;36882;-74
2023/06/29 07:08:45;;;;;;;5.78;2.10;;;;;;;21.36;46.68;99769.81;7801263;32;37048;-75
2023/06/29 07:13:02;;;;;;;5.15;2.33;;;;;;;21.58;46.34;99765.84;7800229;32;39396;-73
2023/06/29 07:17:18;;;;;;;4.87;2.33;;;;;;;22.02;44.99;99763.22;7802662;32;39737;-75
2023/06/29 07:21:35;;;;;;;5.72;2.22;;;;;;;22.23;44.66;99753.94;7799871;31;37532;-74
2023/06/29 07:25:52;;;;;;;5.12;2.12;;;;;;;22.52;43.66;99752.03;7801007;32;37254;-73
2023/06/29 07:30:09;;;;;;;5.40;2.20;;;;;;;22.48;44.21;99740.81;7800376;32;39243;-74
2023/06/29 07:34:26;;;;;;;5.03;2.35;;;;;;;22.56;43.69;99748.19;7798628;32;40777;-73
2023/06/29 07:38:43;;;;;;;5.72;2.22;;;;;;;23.04;42.62;99746.31;7799638;32;38801;-75
2023/06/29 07:42:59;;;;;;;4.53;2.03;;;;;;;23.19;42.48;99744.75;7800819;31;36232;-76
2023/06/29 07:47:16;;;;;;;4.25;1.75;;;;;;;23.64;41.63;99751.00;7814571;31;39535;-76
2023/06/29 07:51:33;;;;;;;4.22;2.00;;;;;;;23.84;40.52;99759.47;7818525;31;39996;-76
2023/06/29 07:55:49;;;;;;;3.03;1.90;;;;;;;23.79;40.03;99747.38;7815722;31;37984;-77
2023/06/29 08:00:06;;;;;;;5.22;1.85;;;;;;;23.69;40.43;99742.37;7812333;31;202430;-76
2023/06/29 08:04:23;;;;;;;5.10;1.90;;;;;;;23.96;40.88;99734.28;7818968;31;39272;-77
2023/06/29 08:08:42;;;;;;;3.70;2.25;;;;;;;24.19;39.32;99737.97;7814726;31;39360;-77
2023/06/29 08:13:00;;;;;;;3.28;2.05;;;;;;;24.44;39.70;99731.28;7813607;31;38114;-76
2023/06/29 08:17:20;;;;;;;5.65;1.98;;;;;;;24.82;39.04;99729.66;7816069;31;36913;-76
2023/06/29 08:21:37;;;;;;;5.05;1.90;;;;;;;24.46;39.14;99735.34;7808709;31;39241;-76
2023/06/29 08:25:54;;;;;;;3.15;1.87;;;;;;;24.82;39.64;99732.47;7820733;31;40127;-78
2023/06/29 08:30:10;;;;;;;6.05;1.98;;;;;;;24.74;40.61;99737.91;7815564;32;38210;-79
2023/06/29 08:34:27;;;;;;;4.50;2.00;;;;;;;24.70;38.16;99734.25;7814748;32;36927;-77
2023/06/29 08:38:48;;;;;;;4.50;2.10;;;;;;;25.18;38.10;99735.91;7816736;32;39990;-77
2023/06/29 08:43:05;;;;;;;6.22;2.20;;;;;;;25.05;37.97;99733.28;7816621;32;38988;-77
2023/06/29 08:47:22;;;;;;;4.35;2.30;;;;;;;25.03;38.36;99735.66;7816843;32;38072;-77
2023/06/29 08:51:42;;;;;;;3.70;1.98;;;;;;;25.29;37.37;99731.34;7815870;32;37698;-77
2023/06/29 08:55:58;;;;;;;3.15;2.08;;;;;;;25.07;37.93;99735.72;7820420;32;38949;-78
2023/06/29 09:00:16;;;;;;;4.30;1.90;;;;;;;25.33;37.71;99732.19;7820444;32;39587;-76
2023/06/29 09:04:32;;;;;;;4.57;2.25;;;;;;;26.08;37.20;99729.78;7819182;32;37864;-76
2023/06/29 09:08:48;;;;;;;5.15;2.00;;;;;;;25.53;37.32;99734.94;7807317;31;38120;-71
2023/06/29 09:13:05;;;;;;;4.75;1.80;;;;;;;25.39;36.23;99739.09;7803073;32;38954;-76
2023/06/29 09:17:22;;;;;;;3.05;1.87;;;;;;;25.18;36.31;99744.25;7800042;32;40828;-76
2023/06/29 09:21:43;;;;;;;3.35;1.58;;;;;;;25.12;37.71;99741.78;7820530;32;37962;-75
2023/06/29 09:26:03;;;;;;;2.22;1.67;;;;;;;25.57;37.40;99728.19;7817535;32;37669;-75
2023/06/29 09:30:19;;;;;;;4.12;1.80;;;;;;;25.54;36.66;99722.56;7807032;32;39143;-77
2023/06/29 09:34:43;;;;;;;3.72;2.10;;;;;;;24.90;37.32;99731.41;7811507;32;39919;-77
2023/06/29 09:39:04;;;;;;;5.53;2.10;;;;;;;24.68;37.81;99728.25;7819990;32;37835;-78
2023/06/29 09:43:25;;;;;;;3.08;1.95;;;;;;;25.39;40.46;99727.94;7838399;31;37526;-76
2023/06/29 09:47:49;;;;;;;2.83;1.90;;;;;;;25.64;36.74;99724.72;7847640;31;38786;-75
2023/06/29 09:52:08;;;;;;;4.85;2.08;;;;;;;25.70;37.86;99723.22;7847573;31;39292;-75
2023/06/29 09:56:26;;;;;;;3.58;1.77;;;;;;;26.09;38.59;99719.41;7824019;31;38368;-76
2023/06/29 10:00:43;;;;;;;4.28;1.98;;;;;;;26.30;33.84;99716.91;7819957;32;37490;-76
2023/06/29 10:05:00;;;;;;;3.42;1.83;;;;;;;26.07;35.01;99707.81;7818356;32;40500;-75
2023/06/29 10:09:20;;;;;;;6.03;2.00;;;;;;;26.10;35.58;99716.22;7819990;32;40519;-75
2023/06/29 10:13:48;;;;;;;3.30;1.80;;;;;;;26.91;36.30;99716.78;7820042;32;38659;-76
2023/06/29 10:18:22;;;;;;;4.78;2.20;;;;;;;27.07;33.50;99710.94;7807679;32;37649;-76
2023/06/29 10:22:41;;;;;;;2.45;1.75;;;;;;;27.24;34.64;99713.09;7791785;32;39168;-75
2023/06/29 10:27:00;;;;;;;4.28;2.00;;;;;;;27.84;32.03;99711.16;7807760;32;40020;-76
2023/06/29 10:31:29;;;;;;;1.92;1.75;;;;;;;27.80;30.79;99699.91;7806699;32;37937;-76
2023/06/29 10:35:58;;;;;;;4.97;1.73;;;;;;;27.90;30.16;99703.97;7803267;32;37673;-75
2023/06/29 10:40:19;;;;;;;10.13;2.12;;;;;;;28.68;31.47;99704.72;7806244;32;39218;-74
2023/06/29 10:44:37;;;;;;;2.53;1.80;;;;;;;28.52;33.37;99708.66;7805442;32;40189;-74
2023/06/29 10:49:02;;;;;;;3.70;1.77;;;;;;;28.75;30.37;99708.38;7805677;32;38715;-77
2023/06/29 10:53:20;;;;;;;2.65;1.80;;;;;;;29.10;31.48;99700.41;7790814;32;38484;-75
2023/06/29 10:57:36;;;;;;;3.60;1.95;;;;;;;28.92;28.27;99689.16;7798170;32;39028;-77
2023/06/29 11:01:53;;;;;;;2.08;1.75;;;;;;;29.21;29.41;99696.41;7815134;32;39604;-77
2023/06/29 11:06:10;;;;;;;3.10;1.95;;;;;;;29.30;29.65;99698.00;7790940;32;38632;-77
2023/06/29 11:10:39;;;;;;;4.43;1.90;;;;;;;29.86;29.66;99682.31;7792251;32;37722;-77
2023/06/29 11:14:59;;;;;;;3.72;1.80;;;;;;;29.84;30.43;99684.72;7800681;32;39875;-76
2023/06/29 11:19:35;;;;;;;3.95;2.10;;;;;;;30.34;29.80;99673.28;7800388;32;39930;-75
2023/06/29 11:23:53;;;;;;;4.18;1.90;;;;;;;29.47;28.50;99682.34;7812944;32;38789;-75
2023/06/29 11:28:09;;;;;;;4.30;2.08;;;;;;;28.95;29.33;99677.94;7798264;32;37800;-73
2023/06/29 11:32:26;;;;;;;2.33;1.70;;;;;;;27.32;31.94;99684.00;7797427;32;38270;-76
2023/06/29 11:36:42;;;;;;;3.12;1.73;;;;;;;27.24;32.73;99684.31;7819138;32;40538;-76
2023/06/29 11:41:19;;;;;;;4.18;2.00;;;;;;;28.41;31.01;99679.81;7817410;32;37876;-76
2023/06/29 11:45:36;;;;;;;4.68;2.15;;;;;;;28.91;29.08;99676.34;7818864;32;36979;-75
2023/06/29 11:49:54;;;;;;;3.05;1.62;;;;;;;28.03;31.46;99680.06;7818956;32;39965;-75
2023/06/29 11:54:10;;;;;;;2.33;1.70;;;;;;;27.43;31.20;99680.50;7818800;32;41434;-76
2023/06/29 11:58:34;;;;;;;5.40;2.22;;;;;;;27.28;32.48;99680.34;7818371;32;38440;-76
2023/06/29 12:02:50;;;;;;;3.65;2.10;;;;;;;26.76;31.93;99676.69;7814411;32;38322;-76
2023/06/29 12:07:07;;;;;;;7.50;2.10;;;;;;;27.72;31.74;99665.47;7791054;32;39215;-79
2023/06/29 12:11:36;;;;;;;3.25;1.90;;;;;;;28.16;30.34;99660.09;7810452;32;40890;-75
2023/06/29 12:15:52;;;;;;;4.65;1.90;;;;;;;28.45;29.28;99655.38;7818052;32;37607;-75
2023/06/29 12:20:19;;;;;;;2.37;1.98;;;;;;;27.97;30.22;99650.81;7809323;32;37143;-75
2023/06/29 12:24:36;;;;;;;3.58;1.95;;;;;;;28.22;30.86;99650.13;7796298;32;40048;-75
2023/06/29 12:28:54;;;;;;;1.73;1.60;;;;;;;28.10;30.35;99640.06;7798805;32;40510;-75
2023/06/29 12:33:12;;;;;;;10.93;2.50;;;;;;;27.46;30.49;99643.31;7802183;32;37923;-75
2023/06/29 12:37:28;;;;;;;3.80;2.20;;;;;;;27.99;31.10;99634.41;7799191;32;37797;-76
2023/06/29 12:41:44;;;;;;;2.75;1.60;;;;;;;28.01;29.88;99634.84;7813285;32;38948;-76
2023/06/29 12:46:01;;;;;;;4.55;2.03;;;;;;;28.50;28.51;99628.97;7801452;31;40705;-76
2023/06/29 12:50:17;;;;;;;2.15;1.67;;;;;;;28.32;30.24;99624.12;7825122;31;37380;-76
2023/06/29 12:54:35;;;;;;;3.22;2.08;;;;;;;28.37;30.52;99626.53;7808478;31;36554;-75
2023/06/29 12:58:51;;;;;;;2.97;1.73;;;;;;;28.52;29.86;99632.16;7812058;31;39291;-75
2023/06/29 13:03:11;;;;;;;3.62;2.00;;;;;;;28.10;30.19;99624.06;7823164;31;40709;-75
2023/06/29 13:07:28;;;;;;;2.83;2.10;;;;;;;28.26;30.67;99623.69;7820735;31;38006;-75
2023/06/29 13:11:44;;;;;;;5.15;2.03;;;;;;;29.20;30.50;99610.63;7822502;31;37881;-76
2023/06/29 13:16:01;;;;;;;3.25;2.37;;;;;;;28.77;29.53;99610.59;7822544;31;37584;-76
2023/06/29 13:20:18;;;;;;;4.10;2.00;;;;;;;29.56;28.65;99599.31;7820037;31;39842;-75
2023/06/29 13:24:34;;;;;;;3.45;1.83;;;;;;;29.81;29.09;99604.06;7822545;31;38752;-75
2023/06/29 13:28:50;;;;;;;6.05;2.10;;;;;;;30.22;27.99;99603.47;7816563;31;35696;-76
2023/06/29 13:33:07;;;;;;;4.18;2.10;;;;;;;29.57;28.44;99602.91;7822132;31;39420;-75
2023/06/29 13:37:23;;;;;;;3.85;2.20;;;;;;;29.36;27.56;99598.94;7797807;32;39937;-70
2023/06/29 13:41:41;;;;;;;2.90;2.10;;;;;;;29.05;28.44;99600.56;7818444;32;37633;-69
2023/06/29 13:45:57;;;;;;;4.20;2.50;;;;;;;30.01;28.53;99606.38;7820199;32;37025;-69
2023/06/29 13:50:14;;;;;;;3.80;2.28;;;;;;;28.91;28.24;99609.00;7818844;32;39908;-70
2023/06/29 13:54:35;;;;;;;2.90;2.47;;;;;;;28.08;29.69;99617.25;7816188;31;40171;-76
2023/06/29 13:58:53;;;;;;;3.97;2.20;;;;;;;28.38;30.16;99605.69;7816211;31;38138;-77
2023/06/29 14:03:09;;;;;;;4.10;2.30;;;;;;;29.47;28.58;99592.50;7802681;31;36675;-76
2023/06/29 14:07:26;;;;;;;4.28;2.30;;;;;;;30.29;27.58;99586.53;7819603;32;39257;-77
2023/06/29 14:11:42;;;;;;;8.80;4.40;;;;;;;30.81;25.22;99580.16;7819917;32;39700;-76
2023/06/29 14:15:59;;;;;;;4.22;2.60;;;;;;;30.42;27.51;99578.44;7819653;32;38805;-77
2023/06/29 14:20:15;;;;;;;3.83;2.70;;;;;;;29.85;26.77;99582.34;7819555;32;36886;-77
2023/06/29 14:24:32;;;;;;;6.03;3.20;;;;;;;29.37;28.34;99577.28;7793306;32;39030;-77
2023/06/29 14:28:49;;;;;;;4.25;2.95;;;;;;;29.14;27.83;99575.69;7792070;32;39864;-77
2023/06/29 14:33:05;;;;;;;3.80;2.90;;;;;;;29.59;27.35;99578.81;7792062;32;37889;-77
2023/06/29 14:37:41;;;;;;;4.03;2.90;;;;;;;29.99;26.34;99575.88;7791802;32;37233;-77
2023/06/29 14:41:58;;;;;;;9.82;2.58;;;;;;;30.25;26.91;99566.09;7790862;32;39367;-77
2023/06/29 14:46:15;;;;;;;4.65;2.95;;;;;;;30.51;27.70;99559.13;7792075;32;39946;-76
2023/06/29 14:50:31;;;;;;;12.90;3.03;;;;;;;30.82;25.56;99558.44;7790633;32;36219;-76
2023/06/29 14:54:48;;;;;;;4.78;2.80;;;;;;;31.29;25.46;99547.56;7792263;32;37102;-77
2023/06/29 14:59:04;;;;;;;7.15;3.65;;;;;;;31.54;25.22;99538.84;7791616;32;39034;-77
2023/06/29 15:03:21;;;;;;;4.03;2.62;;;;;;;30.87;25.94;99543.94;7791556;32;40741;-76
2023/06/29 15:07:38;;;;;;;5.12;2.92;;;;;;;29.94;25.29;99545.38;7806743;32;37861;-77
2023/06/29 15:11:56;;;;;;;4.47;2.97;;;;;;;29.88;26.48;99541.41;7819284;32;38118;-77
2023/06/29 15:16:13;;;;;;;5.37;2.90;;;;;;;30.67;26.08;99540.91;7814427;32;38538;-77
2023/06/29 15:20:29;;;;;;;3.55;2.37;;;;;;;29.77;25.65;99533.84;7791547;32;39987;-77
2023/06/29 15:24:45;;;;;;;2.95;2.40;;;;;;;29.55;26.89;99541.53;7791531;32;37943;-77
2023/06/29 15:29:02;;;;;;;3.97;2.78;;;;;;;30.07;25.73;99529.66;7791319;32;36918;-77
2023/06/29 15:33:19;;;;;;;5.47;2.72;;;;;;;29.64;26.04;99523.44;7791574;32;39930;-77
2023/06/29 15:37:36;;;;;;;3.60;2.25;;;;;;;29.40;26.80;99525.94;7806065;32;39908;-77
2023/06/29 15:41:52;;;;;;;5.62;2.40;;;;;;;30.29;26.35;99521.09;7818481;32;37865;-77
2023/06/29 15:46:10;;;;;;;4.25;2.67;;;;;;;30.22;25.17;99521.94;7807980;32;37543;-76
2023/06/29 15:50:27;;;;;;;4.57;2.60;;;;;;;30.11;25.32;99522.03;7799455;32;39080;-78
2023/06/29 15:54:43;;;;;;;4.62;2.60;;;;;;;30.26;25.75;99514.28;7789076;32;41419;-78
2023/06/29 15:59:00;;;;;;;5.03;3.47;;;;;;;31.00;24.70;99508.47;7790839;32;37896;-81
2023/06/29 16:03:16;;;;;;;4.70;2.60;;;;;;;30.87;24.70;99505.34;7790764;32;37106;-81
2023/06/29 16:07:36;;;;;;;3.37;2.12;;;;;;;30.47;25.10;99510.50;7791043;32;39048;-83
2023/06/29 16:11:54;;;;;;;6.47;2.65;;;;;;;30.79;24.93;99511.47;7790800;32;40025;-85
2023/06/29 16:16:13;;;;;;;4.22;2.53;;;;;;;31.18;24.91;99501.81;7790653;32;37928;-82
2023/06/29 16:20:29;;;;;;;5.20;2.58;;;;;;;31.58;24.12;99503.00;7790689;32;36948;-80
2023/06/29 16:24:45;;;;;;;3.90;2.50;;;;;;;31.19;24.84;99503.44;7790499;32;39248;-80
2023/06/29 16:29:17;;;;;;;7.35;3.47;;;;;;;31.21;25.59;99498.19;7790293;32;40415;-80
2023/06/29 16:33:33;;;;;;;6.10;3.00;;;;;;;31.11;23.94;99493.47;7790221;32;37590;-79
2023/06/29 16:37:50;;;;;;;3.08;2.35;;;;;;;31.44;23.99;99498.31;7790150;32;37665;-80
2023/06/29 16:42:07;;;;;;;4.78;2.20;;;;;;;31.20;24.36;99496.56;7793990;31;39297;-82
2023/06/29 16:46:23;;;;;;;2.72;2.05;;;;;;;30.44;24.69;99497.31;7795411;32;40004;-82
2023/06/29 16:50:39;;;;;;;3.15;2.10;;;;;;;30.43;25.64;99489.28;7793247;32;38837;-81
2023/06/29 16:54:56;;;;;;;3.60;2.00;;;;;;;29.99;26.61;99491.56;7800479;32;36896;-81
2023/06/29 16:59:12;;;;;;;4.60;1.98;;;;;;;29.27;28.16;99496.69;7794927;32;39984;-82
2023/06/29 17:03:28;;;;;;;3.65;1.73;;;;;;;29.39;27.97;99496.28;7801154;32;38186;-81
2023/06/29 17:07:45;;;;;;;2.92;2.00;;;;;;;29.37;27.14;99493.06;7798623;32;37600;-80
2023/06/29 17:12:01;;;;;;;8.10;2.28;;;;;;;29.37;26.97;99491.06;7799064;32;37788;-80
2023/06/29 17:16:17;;;;;;;4.05;1.87;;;;;;;29.16;27.82;99491.91;7801921;32;40248;-79
2023/06/29 17:20:34;;;;;;;2.70;1.95;;;;;;;29.31;27.87;99497.50;7801526;32;39873;-79
2023/06/29 17:24:50;;;;;;;3.50;2.00;;;;;;;28.99;29.24;99501.16;7806335;31;37682;-80
2023/06/29 17:29:07;;;;;;;8.05;4.10;;;;;;;28.89;28.26;99501.97;7821082;31;37493;-81
2023/06/29 17:33:25;;;;;;;4.62;2.10;;;;;;;28.66;29.10;99500.41;7820259;31;38943;-79
2023/06/29 17:37:45;;;;;;;3.90;2.20;;;;;;;28.40;30.00;99496.78;7822551;31;40029;-78
2023/06/29 17:42:03;;;;;;;3.95;2.08;;;;;;;28.21;31.00;99499.97;7822595;31;37872;-79
2023/06/29 17:46:19;;;;;;;3.87;2.20;;;;;;;28.15;31.76;99501.56;7815144;31;37724;-80
2023/06/29 17:50:37;;;;;;;4.12;2.35;;;;;;;27.84;32.51;99501.09;7822373;31;39281;-80
2023/06/29 17:54:56;;;;;;;4.05;2.30;;;;;;;27.93;32.11;99506.34;7815314;31;39503;-80
2023/06/29 17:59:13;;;;;;;2.95;1.90;;;;;;;27.60;33.10;99500.63;7820222;31;38730;-81
2023/06/29 18:03:29;;;;;;;8.40;2.20;;;;;;;27.40;33.12;99504.94;7819730;31;37221;-78
2023/06/29 18:07:47;;;;;;;3.12;2.15;;;;;;;27.20;33.66;99516.41;7825720;31;38430;-79
2023/06/29 18:12:05;;;;;;;6.72;2.45;;;;;;;27.22;33.70;99508.41;7830277;31;38957;-75
2023/06/29 18:16:21;;;;;;;2.97;1.90;;;;;;;27.29;34.20;99513.28;7823023;31;37842;-79
2023/06/29 18:20:38;;;;;;;3.87;1.90;;;;;;;27.23;34.12;99512.78;7820139;32;36992;-78
2023/06/29 18:24:54;;;;;;;4.00;2.15;;;;;;;27.13;35.00;99513.53;7819970;32;40579;-80
2023/06/29 18:29:11;;;;;;;2.92;2.03;;;;;;;26.96;35.81;99523.44;7819993;32;39595;-78
2023/06/29 18:33:28;;;;;;;4.55;2.47;;;;;;;26.86;35.49;99508.19;7819891;32;37879;-78
2023/06/29 18:37:45;;;;;;;5.40;2.83;;;;;;;26.77;36.18;99516.13;7819922;32;36660;-79
2023/06/29 18:42:01;;;;;;;13.60;3.30;;;;;;;26.74;36.65;99522.50;7819903;32;40211;-81
2023/06/29 18:46:18;;;;;;;10.20;4.43;;;;;;;26.50;37.40;99530.25;7819707;32;40687;-81
2023/06/29 18:50:35;;;;;;;11.32;5.43;;;;;;;26.20;38.03;99533.97;7804822;32;38549;-82
2023/06/29 18:54:53;;;;;;;15.75;6.00;;;;;;;26.12;37.66;99526.72;7815872;31;37130;-81
2023/06/29 18:59:12;;;;;;;11.23;5.37;;;;;;;26.01;37.27;99532.19;7815661;31;38845;-81
2023/06/29 19:03:29;;;;;;;12.48;5.70;;;;;;;25.75;38.17;99535.03;7821649;31;40396;-81
2023/06/29 19:07:45;;;;;;;12.52;6.10;;;;;;;25.67;38.22;99537.75;7810485;31;37740;-81
2023/06/29 19:12:02;;;;;;;19.52;6.57;;;;;;;25.42;38.73;99540.25;7816904;31;36712;-80
2023/06/29 19:16:18;;;;;;;13.48;5.43;;;;;;;25.31;38.71;99536.50;7818246;31;39316;-80
2023/06/29 19:20:34;;;;;;;18.58;5.78;;;;;;;25.16;39.04;99543.00;7819824;31;39999;-80
2023/06/29 19:24:50;;;;;;;16.45;5.62;;;;;;;25.08;39.26;99545.72;7818621;31;37689;-80
2023/06/29 19:29:07;;;;;;;11.77;3.50;;;;;;;24.96;39.49;99545.94;7820138;31;37056;-82
2023/06/29 19:33:23;;;;;;;4.68;2.50;;;;;;;24.79;39.92;99552.03;7818878;31;39279;-81
2023/06/29 19:37:43;;;;;;;6.28;2.40;;;;;;;24.70;40.20;99555.06;7819963;31;38890;-81
2023/06/29 19:42:03;;;;;;;8.88;3.05;;;;;;;24.60;40.56;99559.28;7815270;31;38001;-81
2023/06/29 19:46:20;;;;;;;8.27;2.25;;;;;;;24.21;41.68;99556.56;7817655;31;36935;-82
2023/06/29 19:50:37;;;;;;;3.85;2.33;;;;;;;24.21;41.35;99556.56;7825271;31;38954;-79
2023/06/29 19:54:54;;;;;;;5.57;2.40;;;;;;;24.21;41.30;99562.12;7795548;32;40762;-77
2023/06/29 19:59:10;;;;;;;5.93;2.30;;;;;;;24.11;41.31;99568.31;7803386;31;38846;-78
2023/06/29 20:03:27;;;;;;;6.87;2.53;;;;;;;23.95;41.83;99573.97;7809208;31;36316;-78
2023/06/29 20:07:43;;;;;;;8.38;2.17;;;;;;;23.85;42.30;99569.78;7812343;31;40068;-78